createdAt,value
2018-03-07T00:00:44.223Z,4.59
2018-03-07T00:03:16.734Z,4.64
2018-03-07T00:05:49.224Z,4.66
2018-03-07T00:08:21.742Z,4.68
2018-03-07T00:10:54.256Z,4.71
2018-03-07T00:13:26.766Z,4.72
2018-03-07T00:15:59.252Z,4.69
2018-03-07T00:18:31.768Z,4.66
2018-03-07T00:21:04.263Z,4.69
2018-03-07T00:23:36.810Z,4.73
2018-03-07T00:26:09.305Z,4.75
2018-03-07T00:28:41.823Z,4.75
2018-03-07T00:31:14.404Z,4.77
2018-03-07T00:33:46.918Z,4.77
2018-03-07T00:36:19.411Z,4.71
2018-03-07T00:38:51.927Z,4.72
2018-03-07T00:41:24.423Z,4.74
2018-03-07T00:43:56.937Z,4.76
2018-03-07T00:46:29.433Z,4.76
2018-03-07T00:49:01.946Z,4.78
2018-03-07T00:51:34.468Z,4.79
2018-03-07T00:54:06.984Z,4.79
2018-03-07T00:56:39.478Z,4.76
2018-03-07T00:59:11.992Z,4.75
2018-03-07T01:01:44.481Z,4.77
2018-03-07T01:04:16.997Z,4.75
2018-03-07T01:06:49.488Z,4.79
2018-03-07T01:09:21.997Z,4.82
2018-03-07T01:11:54.484Z,4.87
2018-03-07T01:14:26.998Z,4.92
2018-03-07T01:16:59.494Z,4.91
2018-03-07T01:19:32.016Z,4.90
2018-03-07T01:22:04.516Z,4.86
2018-03-07T01:24:37.054Z,4.85
2018-03-07T01:27:09.586Z,4.90
2018-03-07T01:29:42.082Z,4.89
2018-03-07T01:32:14.605Z,4.93
2018-03-07T01:34:47.097Z,4.95
2018-03-07T01:37:19.611Z,4.95
2018-03-07T01:39:52.110Z,4.94
2018-03-07T01:42:25.469Z,4.91
2018-03-07T01:44:57.969Z,4.88
2018-03-07T01:47:30.487Z,4.93
2018-03-07T01:50:02.985Z,4.94
2018-03-07T01:52:35.497Z,4.97
2018-03-07T01:55:07.989Z,4.99
2018-03-07T01:57:40.510Z,5.01
2018-03-07T02:00:13.001Z,5.04
2018-03-07T02:02:45.513Z,5.07
2018-03-07T02:05:18.021Z,5.03
2018-03-07T02:07:50.539Z,5.00
2018-03-07T02:13:00.976Z,4.89
2018-03-07T02:15:33.466Z,4.85
2018-03-07T02:18:05.998Z,4.81
2018-03-07T02:20:38.495Z,4.84
2018-03-07T02:23:11.014Z,4.87
2018-03-07T02:25:43.509Z,4.93
2018-03-07T02:28:16.025Z,4.98
2018-03-07T02:30:48.518Z,5.03
2018-03-07T02:33:21.039Z,5.03
2018-03-07T02:35:53.535Z,5.05
2018-03-07T02:38:26.056Z,5.04
2018-03-07T02:40:58.553Z,5.03
2018-03-07T02:43:31.065Z,4.96
2018-03-07T02:46:03.570Z,4.93
2018-03-07T02:48:36.089Z,4.87
2018-03-07T02:51:08.587Z,4.88
2018-03-07T02:53:41.152Z,4.79
2018-03-07T02:56:13.617Z,4.70
2018-03-07T02:58:46.133Z,4.63
2018-03-07T03:01:18.633Z,4.62
2018-03-07T03:03:51.147Z,4.55
2018-03-07T03:06:23.640Z,4.54
2018-03-07T03:08:56.157Z,4.54
2018-03-07T03:11:28.664Z,4.52
2018-03-07T03:14:01.187Z,4.50
2018-03-07T03:16:33.676Z,4.50
2018-03-07T03:19:06.196Z,4.45
2018-03-07T03:21:38.681Z,4.41
2018-03-07T03:24:11.206Z,4.42
2018-03-07T03:26:43.702Z,4.42
2018-03-07T03:29:16.231Z,4.42
2018-03-07T03:31:48.727Z,4.42
2018-03-07T03:34:21.241Z,4.47
2018-03-07T03:36:53.746Z,4.52
2018-03-07T03:39:26.269Z,4.56
2018-03-07T03:41:58.769Z,4.58
2018-03-07T03:44:31.290Z,4.61
2018-03-07T03:47:03.786Z,4.64
2018-03-07T03:49:36.304Z,4.65
2018-03-07T03:52:08.798Z,4.66
2018-03-07T03:54:41.312Z,4.68
2018-03-07T03:57:13.815Z,4.66
2018-03-07T03:59:46.326Z,4.67
2018-03-07T04:02:18.818Z,4.68
2018-03-07T04:04:51.400Z,4.71
2018-03-07T04:07:23.893Z,4.71
2018-03-07T04:09:56.413Z,4.72
2018-03-07T04:12:30.172Z,4.72
2018-03-07T04:15:02.692Z,4.73
2018-03-07T04:17:35.198Z,4.72
2018-03-07T04:20:07.718Z,4.70
2018-03-07T04:22:40.234Z,4.72
2018-03-07T04:25:12.758Z,4.73
2018-03-07T04:27:45.261Z,4.73
2018-03-07T04:30:17.773Z,4.74
2018-03-07T04:32:50.270Z,4.75
2018-03-07T04:35:22.789Z,4.76
2018-03-07T04:37:55.294Z,4.75
2018-03-07T04:40:27.813Z,4.73
2018-03-07T04:43:00.339Z,4.75
2018-03-07T04:45:32.870Z,4.77
2018-03-07T04:48:05.378Z,4.78
2018-03-07T04:50:37.904Z,4.76
2018-03-07T04:53:10.405Z,4.82
2018-03-07T04:55:42.922Z,4.84
2018-03-07T04:58:15.437Z,4.87
2018-03-07T05:00:47.959Z,4.87
2018-03-07T05:03:20.479Z,4.87
2018-03-07T05:05:52.979Z,4.85
2018-03-07T05:08:25.493Z,4.84
2018-03-07T05:10:58.005Z,4.84
2018-03-07T05:13:30.557Z,4.84
2018-03-07T05:16:03.063Z,4.85
2018-03-07T05:18:35.588Z,4.87
2018-03-07T05:21:08.100Z,4.88
2018-03-07T05:23:40.630Z,4.85
2018-03-07T05:26:13.126Z,4.84
2018-03-07T05:28:45.647Z,4.86
2018-03-07T05:31:18.166Z,4.85
2018-03-07T05:33:50.690Z,4.82
2018-03-07T05:36:23.185Z,4.84
2018-03-07T05:38:55.697Z,4.87
2018-03-07T05:41:28.215Z,4.87
2018-03-07T05:44:00.746Z,4.88
2018-03-07T05:46:33.233Z,4.90
2018-03-07T05:49:05.742Z,4.90
2018-03-07T05:51:38.239Z,4.93
2018-03-07T05:54:10.769Z,4.93
2018-03-07T05:56:43.267Z,4.95
2018-03-07T05:59:15.782Z,4.93
2018-03-07T06:01:48.274Z,4.92
2018-03-07T06:04:20.785Z,4.93
2018-03-07T06:06:53.277Z,4.92
2018-03-07T06:09:25.785Z,4.92
2018-03-07T06:11:58.285Z,4.87
2018-03-07T06:14:30.802Z,4.83
2018-03-07T06:17:03.298Z,4.84
2018-03-07T06:19:35.833Z,4.84
2018-03-07T06:22:08.326Z,4.84
2018-03-07T06:24:40.845Z,4.85
2018-03-07T06:27:13.338Z,4.86
2018-03-07T06:29:45.855Z,4.85
2018-03-07T06:32:18.349Z,4.87
2018-03-07T06:34:50.861Z,4.89
2018-03-07T06:37:23.357Z,4.92
2018-03-07T06:39:55.892Z,4.91
2018-03-07T06:42:28.398Z,4.88
2018-03-07T06:45:00.909Z,4.88
2018-03-07T06:47:33.411Z,4.90
2018-03-07T06:50:05.934Z,4.93
2018-03-07T06:52:38.430Z,4.97
2018-03-07T06:55:10.954Z,4.97
2018-03-07T06:57:43.455Z,4.95
2018-03-07T07:00:15.977Z,4.99
2018-03-07T07:02:48.470Z,5.06
2018-03-07T07:05:20.981Z,5.13
2018-03-07T07:07:53.536Z,5.20
2018-03-07T07:10:26.062Z,5.20
2018-03-07T07:12:58.562Z,5.23
2018-03-07T07:15:31.092Z,5.22
2018-03-07T07:18:03.653Z,5.18
2018-03-07T07:20:36.143Z,5.24
2018-03-07T07:23:08.641Z,5.30
2018-03-07T07:25:41.165Z,5.32
2018-03-07T07:28:13.689Z,5.36
2018-03-07T07:30:46.220Z,5.41
2018-03-07T07:33:18.724Z,5.48
2018-03-07T07:35:51.257Z,5.57
2018-03-07T07:38:23.773Z,5.58
2018-03-07T07:40:56.317Z,5.63
2018-03-07T07:43:28.871Z,5.68
2018-03-07T07:46:01.378Z,5.71
2018-03-07T07:48:33.885Z,5.74
2018-03-07T07:51:06.412Z,5.78
2018-03-07T07:53:38.922Z,5.82
2018-03-07T07:56:11.441Z,5.84
2018-03-07T07:58:43.968Z,5.72
2018-03-07T08:01:16.502Z,5.69
2018-03-07T08:03:49.011Z,5.69
2018-03-07T08:06:21.538Z,5.69
2018-03-07T08:08:54.049Z,5.66
2018-03-07T08:11:26.582Z,5.57
2018-03-07T08:13:59.094Z,5.53
2018-03-07T08:16:31.613Z,5.49
2018-03-07T08:19:04.119Z,5.46
2018-03-07T08:21:36.652Z,5.34
2018-03-07T08:24:09.172Z,5.28
2018-03-07T08:26:41.691Z,5.35
2018-03-07T08:29:14.241Z,5.41
2018-03-07T08:31:46.761Z,5.47
2018-03-07T08:34:19.274Z,5.48
2018-03-07T08:36:51.799Z,5.46
2018-03-07T08:39:24.308Z,5.46
2018-03-07T08:41:56.839Z,5.50
2018-03-07T08:44:29.379Z,5.54
2018-03-07T08:47:01.881Z,5.52
2018-03-07T08:49:34.419Z,5.40
2018-03-07T08:52:06.928Z,5.37
2018-03-07T08:54:39.448Z,5.38
2018-03-07T08:57:11.977Z,5.38
2018-03-07T08:59:44.491Z,5.41
2018-03-07T09:02:17.002Z,5.53
2018-03-07T09:04:49.532Z,5.64
2018-03-07T09:07:22.040Z,5.68
2018-03-07T09:09:54.578Z,5.68
2018-03-07T09:12:27.077Z,5.68
2018-03-07T09:14:59.666Z,5.73
2018-03-07T09:17:32.200Z,5.78
2018-03-07T09:20:04.752Z,5.77
2018-03-07T09:22:37.283Z,5.75
2018-03-07T09:25:09.798Z,5.68
2018-03-07T09:27:42.371Z,5.72
2018-03-07T09:30:14.893Z,5.66
2018-03-07T09:32:47.411Z,5.42
2018-03-07T09:35:19.939Z,5.36
2018-03-07T09:37:52.441Z,5.44
2018-03-07T09:40:24.964Z,5.51
2018-03-07T09:42:57.463Z,5.50
2018-03-07T09:45:29.979Z,5.55
2018-03-07T09:48:02.496Z,5.52
2018-03-07T09:50:35.084Z,5.46
2018-03-07T09:53:07.578Z,5.47
2018-03-07T09:55:40.101Z,5.50
2018-03-07T09:58:12.610Z,5.54
2018-03-07T10:00:45.133Z,5.66
2018-03-07T10:03:17.630Z,5.69
2018-03-07T10:05:50.159Z,5.69
2018-03-07T10:08:22.654Z,5.71
2018-03-07T10:10:55.181Z,5.70
2018-03-07T10:13:27.682Z,5.73
2018-03-07T10:16:00.208Z,5.71
2018-03-07T10:18:32.706Z,5.79
2018-03-07T10:21:05.242Z,5.85
2018-03-07T10:23:37.745Z,5.86
2018-03-07T10:26:10.267Z,5.90
2018-03-07T10:28:42.793Z,6.01
2018-03-07T10:31:15.313Z,5.98
2018-03-07T10:33:47.815Z,6.07
2018-03-07T10:36:20.352Z,5.97
2018-03-07T10:38:52.857Z,5.89
2018-03-07T10:41:25.379Z,5.95
2018-03-07T10:43:57.881Z,5.92
2018-03-07T10:46:30.404Z,5.89
2018-03-07T10:49:02.906Z,5.84
2018-03-07T10:51:35.446Z,5.67
2018-03-07T10:54:07.952Z,5.55
2018-03-07T10:56:40.466Z,5.47
2018-03-07T10:59:12.962Z,5.48
2018-03-07T11:01:45.491Z,5.47
2018-03-07T11:04:17.996Z,5.51
2018-03-07T11:06:50.534Z,5.62
2018-03-07T11:09:23.030Z,5.70
2018-03-07T11:11:55.552Z,5.80
2018-03-07T11:14:28.055Z,5.89
2018-03-07T11:17:00.568Z,6.06
2018-03-07T11:19:33.069Z,6.23
2018-03-07T11:22:05.602Z,6.25
2018-03-07T11:24:38.097Z,6.23
2018-03-07T11:27:10.621Z,6.23
2018-03-07T11:29:43.122Z,6.16
2018-03-07T11:32:15.639Z,6.13
2018-03-07T11:34:48.145Z,6.21
2018-03-07T11:37:20.664Z,6.25
2018-03-07T11:39:53.162Z,6.34
2018-03-07T11:42:25.684Z,6.48
2018-03-07T11:44:58.242Z,6.64
2018-03-07T11:47:30.729Z,6.56
2018-03-07T11:50:03.226Z,6.40
2018-03-07T11:52:35.745Z,6.36
2018-03-07T11:55:08.245Z,6.34
2018-03-07T11:57:40.764Z,6.27
2018-03-07T12:00:13.269Z,6.29
2018-03-07T12:02:45.801Z,6.29
2018-03-07T12:05:18.359Z,6.27
2018-03-07T12:07:50.898Z,6.24
2018-03-07T12:10:23.403Z,6.25
2018-03-07T12:12:55.928Z,6.27
2018-03-07T12:15:28.458Z,6.38
2018-03-07T12:18:00.990Z,6.43
2018-03-07T12:20:33.497Z,6.47
2018-03-07T12:23:06.025Z,6.45
2018-03-07T12:25:38.526Z,6.36
2018-03-07T12:28:11.069Z,6.37
2018-03-07T12:30:43.582Z,6.34
2018-03-07T12:33:16.099Z,6.28
2018-03-07T12:35:48.606Z,6.21
2018-03-07T12:38:21.133Z,6.17
2018-03-07T12:40:53.645Z,6.11
2018-03-07T12:43:26.166Z,6.20
2018-03-07T12:45:58.658Z,6.20
2018-03-07T12:48:31.177Z,6.29
2018-03-07T12:51:03.713Z,6.30
2018-03-07T12:53:36.210Z,6.21
2018-03-07T12:56:08.719Z,6.34
2018-03-07T12:58:41.243Z,6.38
2018-03-07T13:01:13.741Z,6.38
2018-03-07T13:03:46.267Z,6.44
2018-03-07T13:06:18.770Z,6.44
2018-03-07T13:08:51.289Z,6.47
2018-03-07T13:11:23.788Z,6.45
2018-03-07T13:13:56.299Z,6.48
2018-03-07T13:16:28.839Z,6.44
2018-03-07T13:19:01.346Z,6.43
2018-03-07T13:21:33.890Z,6.48
2018-03-07T13:24:06.426Z,6.48
2018-03-07T13:26:38.954Z,6.48
2018-03-07T13:29:11.451Z,6.34
2018-03-07T13:31:43.966Z,6.33
2018-03-07T13:34:16.464Z,6.33
2018-03-07T13:36:48.986Z,6.40
2018-03-07T13:39:21.494Z,6.49
2018-03-07T13:41:54.028Z,6.45
2018-03-07T13:44:26.543Z,6.52
2018-03-07T13:46:59.065Z,6.62
2018-03-07T13:49:31.568Z,6.71
2018-03-07T13:52:04.093Z,6.70
2018-03-07T13:54:36.631Z,6.82
2018-03-07T13:57:09.149Z,6.96
2018-03-07T13:59:41.654Z,6.94
2018-03-07T14:02:14.180Z,7.04
2018-03-07T14:04:46.688Z,7.16
2018-03-07T14:07:19.213Z,7.17
2018-03-07T14:09:51.724Z,7.22
2018-03-07T14:12:24.732Z,7.23
2018-03-07T14:14:57.233Z,7.23
2018-03-07T14:17:29.755Z,7.20
2018-03-07T14:20:02.278Z,7.23
2018-03-07T14:22:34.850Z,7.03
2018-03-07T14:25:07.386Z,6.87
2018-03-07T14:30:17.602Z,6.94
2018-03-07T14:32:50.131Z,6.85
2018-03-07T14:35:22.648Z,6.87
2018-03-07T14:37:55.225Z,6.88
2018-03-07T14:40:27.737Z,6.77
2018-03-07T14:43:00.271Z,6.75
2018-03-07T14:45:32.778Z,6.81
2018-03-07T14:48:05.354Z,6.89
2018-03-07T14:50:37.866Z,6.91
2018-03-07T14:53:10.466Z,6.86
2018-03-07T14:55:43.012Z,6.83
2018-03-07T14:58:15.589Z,6.79
2018-03-07T15:00:48.112Z,6.90
2018-03-07T15:03:20.658Z,6.97
2018-03-07T15:05:53.163Z,7.02
2018-03-07T15:08:25.689Z,7.04
2018-03-07T15:10:58.195Z,6.98
2018-03-07T15:13:30.723Z,6.98
2018-03-07T15:16:03.255Z,7.01
2018-03-07T15:18:35.824Z,7.03
2018-03-07T15:21:08.325Z,6.97
2018-03-07T15:23:40.852Z,6.95
2018-03-07T15:26:13.374Z,6.94
2018-03-07T15:28:45.917Z,6.93
2018-03-07T15:31:18.418Z,6.94
2018-03-07T15:33:50.942Z,7.01
2018-03-07T15:36:23.457Z,7.09
2018-03-07T15:38:56.004Z,7.10
2018-03-07T15:41:28.507Z,7.12
2018-03-07T15:44:01.029Z,7.10
2018-03-07T15:46:33.553Z,7.06
2018-03-07T15:49:06.074Z,7.03
2018-03-07T15:51:38.590Z,7.02
2018-03-07T15:54:11.114Z,7.00
2018-03-07T15:56:43.624Z,7.01
2018-03-07T15:59:16.149Z,6.88
2018-03-07T16:01:48.650Z,6.82
2018-03-07T16:04:21.199Z,6.81
2018-03-07T16:06:53.747Z,6.78
2018-03-07T16:09:26.288Z,6.83
2018-03-07T16:11:58.800Z,6.87
2018-03-07T16:14:31.349Z,6.62
2018-03-07T16:17:03.934Z,6.71
2018-03-07T16:19:36.399Z,6.77
2018-03-07T16:22:08.903Z,6.79
2018-03-07T16:24:41.518Z,6.75
2018-03-07T16:27:14.030Z,6.70
2018-03-07T16:29:46.550Z,6.67
2018-03-07T16:32:19.061Z,6.67
2018-03-07T16:34:51.586Z,6.60
2018-03-07T16:37:24.093Z,6.61
2018-03-07T16:39:56.618Z,6.63
2018-03-07T16:42:29.133Z,6.66
2018-03-07T16:45:01.663Z,6.71
2018-03-07T16:47:34.185Z,6.72
2018-03-07T16:50:06.721Z,6.66
2018-03-07T16:52:39.234Z,6.62
2018-03-07T16:55:11.770Z,6.45
2018-03-07T16:57:44.282Z,6.42
2018-03-07T17:00:16.818Z,6.51
2018-03-07T17:02:49.326Z,6.59
2018-03-07T17:05:21.857Z,6.63
2018-03-07T17:07:54.405Z,6.64
2018-03-07T17:10:26.923Z,6.62
2018-03-07T17:12:59.440Z,6.61
2018-03-07T17:15:31.946Z,6.56
2018-03-07T17:18:04.461Z,6.52
2018-03-07T17:20:36.974Z,6.44
2018-03-07T17:23:09.513Z,6.37
2018-03-07T17:25:42.021Z,6.32
2018-03-07T17:28:14.539Z,6.38
2018-03-07T17:30:47.067Z,6.41
2018-03-07T17:33:19.592Z,6.41
2018-03-07T17:35:52.091Z,6.36
2018-03-07T17:38:24.609Z,6.31
2018-03-07T17:40:57.105Z,6.11
2018-03-07T17:43:29.634Z,6.05
2018-03-07T17:46:02.135Z,6.07
2018-03-07T17:48:34.674Z,6.04
2018-03-07T17:51:07.195Z,5.97
2018-03-07T17:53:39.727Z,5.94
2018-03-07T17:56:12.250Z,5.98
2018-03-07T17:58:44.853Z,5.93
2018-03-07T18:01:17.408Z,5.87
2018-03-07T18:03:49.933Z,5.83
2018-03-07T18:06:22.647Z,5.67
2018-03-07T18:08:55.189Z,5.54
2018-03-07T18:11:28.217Z,5.54
2018-03-07T18:14:00.766Z,5.53
2018-03-07T18:16:33.323Z,5.43
2018-03-07T18:19:05.841Z,5.42
2018-03-07T18:21:38.377Z,5.50
2018-03-07T18:24:10.904Z,5.55
2018-03-07T18:26:43.410Z,5.60
2018-03-07T18:29:15.931Z,5.66
2018-03-07T18:31:48.442Z,5.69
2018-03-07T18:34:20.969Z,5.66
2018-03-07T18:36:53.530Z,5.61
2018-03-07T18:39:26.047Z,5.61
2018-03-07T18:41:58.575Z,5.53
2018-03-07T18:44:31.093Z,5.43
2018-03-07T18:47:03.747Z,5.48
2018-03-07T18:49:36.265Z,5.52
2018-03-07T18:52:08.836Z,5.52
2018-03-07T18:54:41.359Z,5.48
2018-03-07T18:57:13.878Z,5.43
2018-03-07T18:59:46.401Z,5.34
2018-03-07T19:02:18.902Z,5.31
2018-03-07T19:04:51.449Z,5.30
2018-03-07T19:07:24.781Z,5.28
2018-03-07T19:09:57.309Z,5.29
2018-03-07T19:12:29.814Z,5.25
2018-03-07T19:15:02.337Z,5.17
2018-03-07T19:17:34.914Z,5.16
2018-03-07T19:20:07.407Z,5.18
2018-03-07T19:22:39.921Z,5.20
2018-03-07T19:25:12.443Z,5.16
2018-03-07T19:27:44.974Z,4.95
2018-03-07T19:30:18.059Z,5.01
2018-03-07T19:32:50.906Z,5.05
2018-03-07T19:35:23.438Z,5.00
2018-03-07T19:37:55.964Z,5.07
2018-03-07T19:40:28.482Z,5.09
2018-03-07T19:43:00.995Z,5.03
2018-03-07T19:45:34.053Z,4.99
2018-03-07T19:48:06.568Z,4.93
2018-03-07T19:50:39.090Z,4.92
2018-03-07T19:53:11.626Z,4.95
2018-03-07T19:55:44.142Z,5.01
2018-03-07T19:58:16.638Z,5.06
2018-03-07T20:00:49.162Z,4.96
2018-03-07T20:03:21.677Z,4.98
2018-03-07T20:05:54.257Z,4.61
2018-03-07T20:08:26.798Z,4.72
2018-03-07T20:10:59.337Z,4.82
2018-03-07T20:13:31.848Z,4.87
2018-03-07T20:16:04.492Z,4.95
2018-03-07T20:18:36.994Z,5.02
2018-03-07T20:21:09.505Z,5.09
2018-03-07T20:23:42.042Z,5.08
2018-03-07T20:26:14.588Z,5.01
2018-03-07T20:28:47.095Z,4.96
2018-03-07T20:31:19.635Z,5.01
2018-03-07T20:33:52.195Z,5.00
2018-03-07T20:36:24.714Z,4.96
2018-03-07T20:38:57.235Z,4.93
2018-03-07T20:41:29.805Z,4.86
2018-03-07T20:44:02.307Z,4.48
2018-03-07T20:46:34.834Z,4.02
2018-03-07T20:49:07.354Z,4.27
2018-03-07T20:51:39.871Z,4.20
2018-03-07T20:54:12.374Z,4.82
2018-03-07T20:56:44.897Z,5.07
2018-03-07T20:59:17.404Z,5.20
2018-03-07T21:01:49.943Z,5.21
2018-03-07T21:04:22.502Z,5.34
2018-03-07T21:06:54.977Z,5.39
2018-03-07T21:09:27.484Z,5.42
2018-03-07T21:12:00.003Z,5.42
2018-03-07T21:14:32.511Z,5.52
2018-03-07T21:17:05.035Z,5.60
2018-03-07T21:19:37.538Z,5.58
2018-03-07T21:22:10.098Z,5.62
2018-03-07T21:24:42.608Z,5.67
2018-03-07T21:27:15.126Z,5.72
2018-03-07T21:29:47.646Z,5.81
2018-03-07T21:32:20.227Z,5.85
2018-03-07T21:34:52.742Z,5.86
2018-03-07T21:37:25.244Z,5.85
2018-03-07T21:39:57.756Z,5.88
2018-03-07T21:42:30.264Z,5.84
2018-03-07T21:45:02.798Z,5.85
2018-03-07T21:47:35.341Z,5.80
2018-03-07T21:50:07.843Z,5.79
2018-03-07T21:52:40.343Z,5.83
2018-03-07T21:55:12.857Z,5.81
2018-03-07T21:57:45.353Z,5.84
2018-03-07T22:00:17.921Z,5.84
2018-03-07T22:02:50.431Z,5.81
2018-03-07T22:05:22.958Z,5.78
2018-03-07T22:07:55.453Z,5.71
2018-03-07T22:10:27.987Z,5.26
2018-03-07T22:13:00.503Z,5.35
2018-03-07T22:15:33.066Z,5.40
2018-03-07T22:18:05.568Z,5.49
2018-03-07T22:20:38.084Z,5.54
2018-03-07T22:23:10.587Z,5.53
2018-03-07T22:25:43.109Z,5.26
2018-03-07T22:28:15.605Z,5.33
2018-03-07T22:30:48.134Z,5.11
2018-03-07T22:33:20.655Z,5.24
2018-03-07T22:35:53.190Z,5.33
2018-03-07T22:38:25.717Z,5.34
2018-03-07T22:40:58.238Z,5.41
2018-03-07T22:43:30.739Z,5.48
2018-03-07T22:46:03.261Z,5.48
2018-03-07T22:48:35.785Z,5.45
2018-03-07T22:51:08.313Z,5.43
2018-03-07T22:53:41.006Z,4.91
2018-03-07T22:56:13.633Z,4.61
2018-03-07T22:58:46.137Z,4.85
2018-03-07T23:01:18.649Z,5.10
2018-03-07T23:03:51.156Z,5.26
2018-03-07T23:06:23.688Z,5.35
2018-03-07T23:08:56.186Z,5.41
2018-03-07T23:11:28.731Z,5.43
2018-03-07T23:14:01.239Z,5.43
2018-03-07T23:16:33.767Z,5.41
2018-03-07T23:19:06.287Z,5.41
2018-03-07T23:21:38.823Z,5.33
2018-03-07T23:24:11.329Z,5.34
2018-03-07T23:26:43.878Z,5.35
2018-03-07T23:29:16.413Z,5.36
2018-03-07T23:31:48.921Z,5.32
2018-03-07T23:34:21.436Z,5.29
2018-03-07T23:36:53.960Z,5.30
2018-03-07T23:39:26.459Z,5.26
2018-03-07T23:41:58.977Z,5.24
2018-03-07T23:44:31.482Z,5.29
2018-03-07T23:47:04.019Z,5.29
2018-03-07T23:49:36.515Z,5.31
2018-03-07T23:52:09.031Z,5.34
2018-03-07T23:54:41.534Z,5.35
2018-03-07T23:57:14.067Z,5.32
2018-03-07T23:59:46.564Z,5.28
